sensor_id;sensor_type;location;lat;lon;timestamp;temperature;humidity
11838;DHT22;5978;51.020;6.764;2023-05-24T00:01:21;10.60;99.90
11838;DHT22;5978;51.020;6.764;2023-05-24T00:03:51;10.60;99.90
11838;DHT22;5978;51.020;6.764;2023-05-24T00:06:17;10.50;99.90
11838;DHT22;5978;51.020;6.764;2023-05-24T00:08:43;10.50;99.90
11838;DHT22;5978;51.020;6.764;2023-05-24T00:11:09;10.40;99.90
11838;DHT22;5978;51.020;6.764;2023-05-24T00:13:36;10.40;99.90
11838;DHT22;5978;51.020;6.764;2023-05-24T00:16:02;10.40;99.90
11838;DHT22;5978;51.020;6.764;2023-05-24T00:18:28;10.40;99.90
11838;DHT22;5978;51.020;6.764;2023-05-24T00:20:57;10.40;99.90
11838;DHT22;5978;51.020;6.764;2023-05-24T00:23:26;10.40;99.90
11838;DHT22;5978;51.020;6.764;2023-05-24T00:25:52;10.30;99.90
11838;DHT22;5978;51.020;6.764;2023-05-24T00:28:17;10.30;99.90
11838;DHT22;5978;51.020;6.764;2023-05-24T00:30:43;10.30;99.90
11838;DHT22;5978;51.020;6.764;2023-05-24T00:33:09;10.10;99.90
11838;DHT22;5978;51.020;6.764;2023-05-24T00:35:35;10.10;99.90
11838;DHT22;5978;51.020;6.764;2023-05-24T00:38:01;10.00;99.90
11838;DHT22;5978;51.020;6.764;2023-05-24T00:40:26;10.00;99.90
11838;DHT22;5978;51.020;6.764;2023-05-24T00:42:52;10.10;99.90
11838;DHT22;5978;51.020;6.764;2023-05-24T00:45:18;10.00;99.90
11838;DHT22;5978;51.020;6.764;2023-05-24T00:47:44;10.00;99.90
11838;DHT22;5978;51.020;6.764;2023-05-24T00:50:11;9.90;99.90
11838;DHT22;5978;51.020;6.764;2023-05-24T00:52:40;9.90;99.90
11838;DHT22;5978;51.020;6.764;2023-05-24T00:55:06;9.90;99.90
11838;DHT22;5978;51.020;6.764;2023-05-24T00:57:34;9.90;99.90
11838;DHT22;5978;51.020;6.764;2023-05-24T01:00:01;9.90;99.90
11838;DHT22;5978;51.020;6.764;2023-05-24T01:02:27;9.80;99.90
11838;DHT22;5978;51.020;6.764;2023-05-24T01:04:52;9.80;99.90
11838;DHT22;5978;51.020;6.764;2023-05-24T01:07:43;9.80;99.90
11838;DHT22;5978;51.020;6.764;2023-05-24T01:12:57;9.80;99.90
11838;DHT22;5978;51.020;6.764;2023-05-24T01:18:34;9.80;99.90
11838;DHT22;5978;51.020;6.764;2023-05-24T01:21:34;9.70;99.90
11838;DHT22;5978;51.020;6.764;2023-05-24T01:27:03;9.60;99.90
11838;DHT22;5978;51.020;6.764;2023-05-24T01:29:30;9.50;99.90
11838;DHT22;5978;51.020;6.764;2023-05-24T01:31:56;9.50;99.90
11838;DHT22;5978;51.020;6.764;2023-05-24T01:34:24;9.40;99.90
11838;DHT22;5978;51.020;6.764;2023-05-24T01:36:50;9.30;99.90
11838;DHT22;5978;51.020;6.764;2023-05-24T01:39:16;9.30;99.90
11838;DHT22;5978;51.020;6.764;2023-05-24T01:41:51;9.20;99.90
11838;DHT22;5978;51.020;6.764;2023-05-24T01:44:33;9.20;99.90
11838;DHT22;5978;51.020;6.764;2023-05-24T01:49:42;9.10;99.90
11838;DHT22;5978;51.020;6.764;2023-05-24T01:52:12;9.10;99.90
11838;DHT22;5978;51.020;6.764;2023-05-24T01:54:43;9.00;99.90
11838;DHT22;5978;51.020;6.764;2023-05-24T01:57:10;9.00;99.90
11838;DHT22;5978;51.020;6.764;2023-05-24T01:59:39;9.00;99.90
11838;DHT22;5978;51.020;6.764;2023-05-24T02:02:05;9.00;99.90
11838;DHT22;5978;51.020;6.764;2023-05-24T02:04:31;9.00;99.90
11838;DHT22;5978;51.020;6.764;2023-05-24T02:06:57;8.90;99.90
11838;DHT22;5978;51.020;6.764;2023-05-24T02:09:22;8.80;99.90
11838;DHT22;5978;51.020;6.764;2023-05-24T02:11:48;8.80;99.90
11838;DHT22;5978;51.020;6.764;2023-05-24T02:14:13;8.70;99.90
11838;DHT22;5978;51.020;6.764;2023-05-24T02:16:41;8.70;99.90
11838;DHT22;5978;51.020;6.764;2023-05-24T02:19:14;8.70;99.90
11838;DHT22;5978;51.020;6.764;2023-05-24T02:21:39;8.80;99.90
11838;DHT22;5978;51.020;6.764;2023-05-24T02:24:08;8.80;99.90
11838;DHT22;5978;51.020;6.764;2023-05-24T02:26:37;8.70;99.90
11838;DHT22;5978;51.020;6.764;2023-05-24T02:29:03;8.70;99.90
11838;DHT22;5978;51.020;6.764;2023-05-24T02:31:29;8.60;99.90
11838;DHT22;5978;51.020;6.764;2023-05-24T02:33:56;8.70;99.90
11838;DHT22;5978;51.020;6.764;2023-05-24T02:36:22;8.60;99.90
11838;DHT22;5978;51.020;6.764;2023-05-24T02:38:52;8.70;99.90
11838;DHT22;5978;51.020;6.764;2023-05-24T02:41:18;8.70;99.90
11838;DHT22;5978;51.020;6.764;2023-05-24T02:43:47;8.60;99.90
11838;DHT22;5978;51.020;6.764;2023-05-24T02:46:13;8.60;99.90
11838;DHT22;5978;51.020;6.764;2023-05-24T02:48:39;8.70;99.90
11838;DHT22;5978;51.020;6.764;2023-05-24T02:51:05;8.60;99.90
11838;DHT22;5978;51.020;6.764;2023-05-24T02:53:31;8.60;99.90
11838;DHT22;5978;51.020;6.764;2023-05-24T02:55:57;8.50;99.90
11838;DHT22;5978;51.020;6.764;2023-05-24T02:58:24;8.40;99.90
11838;DHT22;5978;51.020;6.764;2023-05-24T03:00:49;8.40;99.90
11838;DHT22;5978;51.020;6.764;2023-05-24T03:03:15;8.30;99.90
11838;DHT22;5978;51.020;6.764;2023-05-24T03:05:41;8.30;99.90
11838;DHT22;5978;51.020;6.764;2023-05-24T03:08:07;8.20;99.90
11838;DHT22;5978;51.020;6.764;2023-05-24T03:10:33;8.20;99.90
11838;DHT22;5978;51.020;6.764;2023-05-24T03:12:59;8.20;99.90
11838;DHT22;5978;51.020;6.764;2023-05-24T03:15:25;8.30;99.90
11838;DHT22;5978;51.020;6.764;2023-05-24T03:17:51;8.30;99.90
11838;DHT22;5978;51.020;6.764;2023-05-24T03:20:17;8.20;99.90
11838;DHT22;5978;51.020;6.764;2023-05-24T03:22:42;8.10;99.90
11838;DHT22;5978;51.020;6.764;2023-05-24T03:25:08;8.10;99.90
11838;DHT22;5978;51.020;6.764;2023-05-24T03:27:35;8.10;99.90
11838;DHT22;5978;51.020;6.764;2023-05-24T03:30:01;8.20;99.90
11838;DHT22;5978;51.020;6.764;2023-05-24T03:32:26;8.30;99.90
11838;DHT22;5978;51.020;6.764;2023-05-24T03:34:52;8.20;99.90
11838;DHT22;5978;51.020;6.764;2023-05-24T03:37:18;8.30;99.90
11838;DHT22;5978;51.020;6.764;2023-05-24T03:39:44;8.20;99.90
11838;DHT22;5978;51.020;6.764;2023-05-24T03:42:10;8.20;99.90
11838;DHT22;5978;51.020;6.764;2023-05-24T03:44:36;8.20;99.90
11838;DHT22;5978;51.020;6.764;2023-05-24T03:47:02;8.10;99.90
11838;DHT22;5978;51.020;6.764;2023-05-24T03:49:28;8.10;99.90
11838;DHT22;5978;51.020;6.764;2023-05-24T03:51:53;8.10;99.90
11838;DHT22;5978;51.020;6.764;2023-05-24T03:54:19;8.20;99.90
11838;DHT22;5978;51.020;6.764;2023-05-24T03:56:44;8.20;99.90
11838;DHT22;5978;51.020;6.764;2023-05-24T03:59:11;8.30;99.90
11838;DHT22;5978;51.020;6.764;2023-05-24T04:01:36;8.30;99.90
11838;DHT22;5978;51.020;6.764;2023-05-24T04:04:02;8.30;99.90
11838;DHT22;5978;51.020;6.764;2023-05-24T04:06:28;8.30;99.90
11838;DHT22;5978;51.020;6.764;2023-05-24T04:08:55;8.40;99.90
11838;DHT22;5978;51.020;6.764;2023-05-24T04:11:22;8.40;99.90
11838;DHT22;5978;51.020;6.764;2023-05-24T04:13:48;8.40;99.90
11838;DHT22;5978;51.020;6.764;2023-05-24T04:16:15;8.50;99.90
11838;DHT22;5978;51.020;6.764;2023-05-24T04:18:41;8.40;99.90
11838;DHT22;5978;51.020;6.764;2023-05-24T04:21:07;8.40;99.90
11838;DHT22;5978;51.020;6.764;2023-05-24T04:23:33;8.50;99.90
11838;DHT22;5978;51.020;6.764;2023-05-24T04:25:59;8.50;99.90
11838;DHT22;5978;51.020;6.764;2023-05-24T04:28:25;8.60;99.90
11838;DHT22;5978;51.020;6.764;2023-05-24T04:30:50;8.70;99.90
11838;DHT22;5978;51.020;6.764;2023-05-24T04:33:16;8.70;99.90
11838;DHT22;5978;51.020;6.764;2023-05-24T04:35:42;8.80;99.90
11838;DHT22;5978;51.020;6.764;2023-05-24T04:38:08;8.80;99.90
11838;DHT22;5978;51.020;6.764;2023-05-24T04:40:37;8.90;99.90
11838;DHT22;5978;51.020;6.764;2023-05-24T04:43:03;9.00;99.90
11838;DHT22;5978;51.020;6.764;2023-05-24T04:45:30;9.00;99.90
11838;DHT22;5978;51.020;6.764;2023-05-24T04:47:57;9.10;99.90
11838;DHT22;5978;51.020;6.764;2023-05-24T04:50:23;9.00;99.90
11838;DHT22;5978;51.020;6.764;2023-05-24T04:52:48;9.20;99.90
11838;DHT22;5978;51.020;6.764;2023-05-24T04:55:14;9.20;99.90
11838;DHT22;5978;51.020;6.764;2023-05-24T04:57:40;9.30;99.90
11838;DHT22;5978;51.020;6.764;2023-05-24T05:00:06;9.40;99.90
11838;DHT22;5978;51.020;6.764;2023-05-24T05:02:33;9.40;99.90
11838;DHT22;5978;51.020;6.764;2023-05-24T05:04:59;9.50;99.90
11838;DHT22;5978;51.020;6.764;2023-05-24T05:07:24;9.60;99.90
11838;DHT22;5978;51.020;6.764;2023-05-24T05:09:50;9.60;99.90
11838;DHT22;5978;51.020;6.764;2023-05-24T05:12:16;9.70;99.90
11838;DHT22;5978;51.020;6.764;2023-05-24T05:14:42;9.80;99.90
11838;DHT22;5978;51.020;6.764;2023-05-24T05:17:07;9.90;99.90
11838;DHT22;5978;51.020;6.764;2023-05-24T05:19:33;10.00;99.90
11838;DHT22;5978;51.020;6.764;2023-05-24T05:21:58;10.00;99.90
11838;DHT22;5978;51.020;6.764;2023-05-24T05:24:24;10.00;99.90
11838;DHT22;5978;51.020;6.764;2023-05-24T05:26:49;10.10;99.90
11838;DHT22;5978;51.020;6.764;2023-05-24T05:29:15;10.20;99.90
11838;DHT22;5978;51.020;6.764;2023-05-24T05:31:41;10.40;99.90
11838;DHT22;5978;51.020;6.764;2023-05-24T05:34:07;10.40;99.90
11838;DHT22;5978;51.020;6.764;2023-05-24T05:36:35;10.50;99.90
11838;DHT22;5978;51.020;6.764;2023-05-24T05:39:07;10.60;99.90
11838;DHT22;5978;51.020;6.764;2023-05-24T05:41:38;10.70;99.90
11838;DHT22;5978;51.020;6.764;2023-05-24T05:44:04;10.90;99.90
11838;DHT22;5978;51.020;6.764;2023-05-24T05:46:30;11.10;99.90
11838;DHT22;5978;51.020;6.764;2023-05-24T05:48:55;11.10;99.90
11838;DHT22;5978;51.020;6.764;2023-05-24T05:51:21;11.20;99.90
11838;DHT22;5978;51.020;6.764;2023-05-24T05:53:47;11.10;99.90
11838;DHT22;5978;51.020;6.764;2023-05-24T05:56:12;11.20;99.90
11838;DHT22;5978;51.020;6.764;2023-05-24T05:58:38;11.40;99.90
11838;DHT22;5978;51.020;6.764;2023-05-24T06:01:03;11.60;99.90
11838;DHT22;5978;51.020;6.764;2023-05-24T06:03:29;11.70;99.90
11838;DHT22;5978;51.020;6.764;2023-05-24T06:05:55;11.80;99.90
11838;DHT22;5978;51.020;6.764;2023-05-24T06:08:20;11.90;99.90
11838;DHT22;5978;51.020;6.764;2023-05-24T06:10:46;11.90;99.90
11838;DHT22;5978;51.020;6.764;2023-05-24T06:13:13;12.00;99.90
11838;DHT22;5978;51.020;6.764;2023-05-24T06:15:39;12.10;99.90
11838;DHT22;5978;51.020;6.764;2023-05-24T06:18:05;12.20;99.90
11838;DHT22;5978;51.020;6.764;2023-05-24T06:20:31;12.30;99.90
11838;DHT22;5978;51.020;6.764;2023-05-24T06:22:56;12.20;99.90
11838;DHT22;5978;51.020;6.764;2023-05-24T06:25:23;12.30;99.90
11838;DHT22;5978;51.020;6.764;2023-05-24T06:27:49;12.30;99.90
11838;DHT22;5978;51.020;6.764;2023-05-24T06:30:16;12.50;99.90
11838;DHT22;5978;51.020;6.764;2023-05-24T06:32:42;12.60;99.90
11838;DHT22;5978;51.020;6.764;2023-05-24T06:35:08;12.90;99.90
11838;DHT22;5978;51.020;6.764;2023-05-24T06:37:34;13.10;99.90
11838;DHT22;5978;51.020;6.764;2023-05-24T06:40:00;13.30;99.90
11838;DHT22;5978;51.020;6.764;2023-05-24T06:42:26;13.40;99.90
11838;DHT22;5978;51.020;6.764;2023-05-24T06:44:51;13.40;99.90
11838;DHT22;5978;51.020;6.764;2023-05-24T06:47:17;13.50;99.90
11838;DHT22;5978;51.020;6.764;2023-05-24T06:49:43;13.70;99.90
11838;DHT22;5978;51.020;6.764;2023-05-24T06:52:08;14.00;99.90
11838;DHT22;5978;51.020;6.764;2023-05-24T06:54:34;14.00;99.90
11838;DHT22;5978;51.020;6.764;2023-05-24T06:57:00;13.70;99.90
11838;DHT22;5978;51.020;6.764;2023-05-24T06:59:26;13.60;99.90
11838;DHT22;5978;51.020;6.764;2023-05-24T07:01:51;13.40;99.90
11838;DHT22;5978;51.020;6.764;2023-05-24T07:04:23;13.60;99.90
11838;DHT22;5978;51.020;6.764;2023-05-24T07:06:49;13.60;99.90
11838;DHT22;5978;51.020;6.764;2023-05-24T07:09:16;13.60;99.90
11838;DHT22;5978;51.020;6.764;2023-05-24T07:11:42;13.50;99.90
11838;DHT22;5978;51.020;6.764;2023-05-24T07:14:08;13.60;99.90
11838;DHT22;5978;51.020;6.764;2023-05-24T07:16:33;13.70;99.90
11838;DHT22;5978;51.020;6.764;2023-05-24T07:18:59;13.90;99.90
11838;DHT22;5978;51.020;6.764;2023-05-24T07:21:25;13.90;99.90
11838;DHT22;5978;51.020;6.764;2023-05-24T07:23:51;14.10;99.90
11838;DHT22;5978;51.020;6.764;2023-05-24T07:26:16;14.40;99.90
11838;DHT22;5978;51.020;6.764;2023-05-24T07:28:42;14.50;99.90
11838;DHT22;5978;51.020;6.764;2023-05-24T07:31:08;14.60;99.90
11838;DHT22;5978;51.020;6.764;2023-05-24T07:33:37;14.80;99.90
11838;DHT22;5978;51.020;6.764;2023-05-24T07:36:06;14.50;99.90
11838;DHT22;5978;51.020;6.764;2023-05-24T07:38:33;14.60;99.90
11838;DHT22;5978;51.020;6.764;2023-05-24T07:41:00;14.80;99.90
11838;DHT22;5978;51.020;6.764;2023-05-24T07:43:28;14.90;99.90
11838;DHT22;5978;51.020;6.764;2023-05-24T07:45:53;15.00;99.90
11838;DHT22;5978;51.020;6.764;2023-05-24T07:48:19;14.80;99.90
11838;DHT22;5978;51.020;6.764;2023-05-24T07:50:47;14.50;99.90
11838;DHT22;5978;51.020;6.764;2023-05-24T07:53:16;14.50;99.90
11838;DHT22;5978;51.020;6.764;2023-05-24T07:55:42;14.60;99.90
11838;DHT22;5978;51.020;6.764;2023-05-24T07:58:11;14.70;99.90
11838;DHT22;5978;51.020;6.764;2023-05-24T08:00:37;15.10;99.90
11838;DHT22;5978;51.020;6.764;2023-05-24T08:03:04;15.40;99.90
11838;DHT22;5978;51.020;6.764;2023-05-24T08:05:30;15.50;99.90
11838;DHT22;5978;51.020;6.764;2023-05-24T08:07:56;15.60;99.90
11838;DHT22;5978;51.020;6.764;2023-05-24T08:10:22;15.80;99.90
11838;DHT22;5978;51.020;6.764;2023-05-24T08:12:49;15.60;99.90
11838;DHT22;5978;51.020;6.764;2023-05-24T08:15:19;15.70;99.90
11838;DHT22;5978;51.020;6.764;2023-05-24T08:17:45;16.00;99.90
11838;DHT22;5978;51.020;6.764;2023-05-24T08:20:11;16.20;99.90
11838;DHT22;5978;51.020;6.764;2023-05-24T08:22:41;16.40;99.90
11838;DHT22;5978;51.020;6.764;2023-05-24T08:25:07;16.50;99.90
11838;DHT22;5978;51.020;6.764;2023-05-24T08:27:33;16.40;99.90
11838;DHT22;5978;51.020;6.764;2023-05-24T08:29:59;16.30;99.90
11838;DHT22;5978;51.020;6.764;2023-05-24T08:32:25;16.30;99.90
11838;DHT22;5978;51.020;6.764;2023-05-24T08:34:51;16.30;99.90
11838;DHT22;5978;51.020;6.764;2023-05-24T08:37:17;16.10;99.90
11838;DHT22;5978;51.020;6.764;2023-05-24T08:39:47;15.90;99.90
11838;DHT22;5978;51.020;6.764;2023-05-24T08:42:14;15.80;99.90
11838;DHT22;5978;51.020;6.764;2023-05-24T08:44:51;15.60;99.90
11838;DHT22;5978;51.020;6.764;2023-05-24T08:47:19;15.60;99.90
11838;DHT22;5978;51.020;6.764;2023-05-24T08:49:46;15.40;99.90
11838;DHT22;5978;51.020;6.764;2023-05-24T08:52:13;15.40;99.90
11838;DHT22;5978;51.020;6.764;2023-05-24T08:54:39;15.50;99.90
11838;DHT22;5978;51.020;6.764;2023-05-24T08:57:06;15.70;99.90
11838;DHT22;5978;51.020;6.764;2023-05-24T08:59:32;16.00;99.90
11838;DHT22;5978;51.020;6.764;2023-05-24T09:01:58;15.90;99.90
11838;DHT22;5978;51.020;6.764;2023-05-24T09:04:26;15.90;99.90
11838;DHT22;5978;51.020;6.764;2023-05-24T09:06:53;15.80;99.90
11838;DHT22;5978;51.020;6.764;2023-05-24T09:09:20;15.60;99.90
11838;DHT22;5978;51.020;6.764;2023-05-24T09:11:48;15.50;99.90
11838;DHT22;5978;51.020;6.764;2023-05-24T09:14:15;15.50;99.90
11838;DHT22;5978;51.020;6.764;2023-05-24T09:16:42;15.40;99.90
11838;DHT22;5978;51.020;6.764;2023-05-24T09:19:08;15.60;99.90
11838;DHT22;5978;51.020;6.764;2023-05-24T09:21:34;15.60;99.90
11838;DHT22;5978;51.020;6.764;2023-05-24T09:24:00;15.60;99.90
11838;DHT22;5978;51.020;6.764;2023-05-24T09:26:27;15.80;99.90
11838;DHT22;5978;51.020;6.764;2023-05-24T09:28:54;16.00;99.90
11838;DHT22;5978;51.020;6.764;2023-05-24T09:31:31;16.30;99.90
11838;DHT22;5978;51.020;6.764;2023-05-24T09:33:58;16.50;99.90
11838;DHT22;5978;51.020;6.764;2023-05-24T09:36:24;16.70;99.90
11838;DHT22;5978;51.020;6.764;2023-05-24T09:39:05;16.90;99.90
11838;DHT22;5978;51.020;6.764;2023-05-24T09:41:32;17.30;99.90
11838;DHT22;5978;51.020;6.764;2023-05-24T09:43:58;17.60;99.90
11838;DHT22;5978;51.020;6.764;2023-05-24T09:46:24;17.60;99.90
11838;DHT22;5978;51.020;6.764;2023-05-24T09:48:55;17.40;99.90
11838;DHT22;5978;51.020;6.764;2023-05-24T09:51:24;17.40;99.90
11838;DHT22;5978;51.020;6.764;2023-05-24T09:53:50;17.40;99.90
11838;DHT22;5978;51.020;6.764;2023-05-24T09:56:17;17.40;99.90
11838;DHT22;5978;51.020;6.764;2023-05-24T09:58:44;17.60;99.90
11838;DHT22;5978;51.020;6.764;2023-05-24T10:01:10;17.50;99.90
11838;DHT22;5978;51.020;6.764;2023-05-24T10:03:37;17.40;99.90
11838;DHT22;5978;51.020;6.764;2023-05-24T10:06:04;17.90;99.90
11838;DHT22;5978;51.020;6.764;2023-05-24T10:08:35;18.20;99.90
11838;DHT22;5978;51.020;6.764;2023-05-24T10:11:04;18.40;99.90
11838;DHT22;5978;51.020;6.764;2023-05-24T10:13:35;18.60;99.90
11838;DHT22;5978;51.020;6.764;2023-05-24T10:16:04;18.30;99.90
11838;DHT22;5978;51.020;6.764;2023-05-24T10:18:30;18.30;99.90
11838;DHT22;5978;51.020;6.764;2023-05-24T10:20:56;18.40;99.90
11838;DHT22;5978;51.020;6.764;2023-05-24T10:23:23;18.60;99.00
11838;DHT22;5978;51.020;6.764;2023-05-24T10:26:03;18.80;99.60
11838;DHT22;5978;51.020;6.764;2023-05-24T10:28:37;18.70;99.90
11838;DHT22;5978;51.020;6.764;2023-05-24T10:31:31;18.50;99.90
11838;DHT22;5978;51.020;6.764;2023-05-24T10:33:58;18.20;99.90
11838;DHT22;5978;51.020;6.764;2023-05-24T10:36:25;18.20;99.90
11838;DHT22;5978;51.020;6.764;2023-05-24T10:38:51;17.90;99.90
11838;DHT22;5978;51.020;6.764;2023-05-24T10:41:17;17.80;99.90
11838;DHT22;5978;51.020;6.764;2023-05-24T10:43:45;17.70;99.90
11838;DHT22;5978;51.020;6.764;2023-05-24T10:46:13;17.60;99.90
11838;DHT22;5978;51.020;6.764;2023-05-24T10:48:40;17.60;99.90
11838;DHT22;5978;51.020;6.764;2023-05-24T10:51:34;17.60;99.90
11838;DHT22;5978;51.020;6.764;2023-05-24T10:54:15;18.10;99.90
11838;DHT22;5978;51.020;6.764;2023-05-24T10:56:44;18.30;99.90
11838;DHT22;5978;51.020;6.764;2023-05-24T10:59:27;18.60;99.00
11838;DHT22;5978;51.020;6.764;2023-05-24T11:01:55;18.90;99.90
11838;DHT22;5978;51.020;6.764;2023-05-24T11:04:21;18.80;96.10
11838;DHT22;5978;51.020;6.764;2023-05-24T11:06:55;19.00;94.20
11838;DHT22;5978;51.020;6.764;2023-05-24T11:09:21;18.90;94.70
11838;DHT22;5978;51.020;6.764;2023-05-24T11:11:49;18.80;96.00
11838;DHT22;5978;51.020;6.764;2023-05-24T11:14:21;18.60;95.20
11838;DHT22;5978;51.020;6.764;2023-05-24T11:16:48;18.70;94.60
11838;DHT22;5978;51.020;6.764;2023-05-24T11:19:20;18.90;96.00
11838;DHT22;5978;51.020;6.764;2023-05-24T11:21:47;18.90;96.00
11838;DHT22;5978;51.020;6.764;2023-05-24T11:24:15;19.40;92.60
11838;DHT22;5978;51.020;6.764;2023-05-24T11:26:42;19.50;91.20
11838;DHT22;5978;51.020;6.764;2023-05-24T11:29:08;19.30;90.10
11838;DHT22;5978;51.020;6.764;2023-05-24T11:31:34;19.20;92.50
11838;DHT22;5978;51.020;6.764;2023-05-24T11:34:08;18.90;93.00
11838;DHT22;5978;51.020;6.764;2023-05-24T11:36:34;18.90;92.10
11838;DHT22;5978;51.020;6.764;2023-05-24T11:39:01;19.20;92.60
11838;DHT22;5978;51.020;6.764;2023-05-24T11:41:27;19.20;93.20
11838;DHT22;5978;51.020;6.764;2023-05-24T11:43:53;19.00;92.70
11838;DHT22;5978;51.020;6.764;2023-05-24T11:46:19;19.20;91.50
11838;DHT22;5978;51.020;6.764;2023-05-24T11:48:57;19.10;89.80
11838;DHT22;5978;51.020;6.764;2023-05-24T11:51:29;18.90;88.40
11838;DHT22;5978;51.020;6.764;2023-05-24T11:53:57;18.60;89.20
11838;DHT22;5978;51.020;6.764;2023-05-24T11:56:24;18.60;91.80
11838;DHT22;5978;51.020;6.764;2023-05-24T11:58:55;18.50;93.20
11838;DHT22;5978;51.020;6.764;2023-05-24T12:01:25;18.20;91.50
11838;DHT22;5978;51.020;6.764;2023-05-24T12:03:52;17.90;95.30
11838;DHT22;5978;51.020;6.764;2023-05-24T12:06:18;17.70;92.90
11838;DHT22;5978;51.020;6.764;2023-05-24T12:08:45;17.50;93.90
11838;DHT22;5978;51.020;6.764;2023-05-24T12:11:11;17.20;95.20
11838;DHT22;5978;51.020;6.764;2023-05-24T12:13:38;17.30;95.50
11838;DHT22;5978;51.020;6.764;2023-05-24T12:16:05;17.40;97.80
11838;DHT22;5978;51.020;6.764;2023-05-24T12:18:30;17.40;99.90
11838;DHT22;5978;51.020;6.764;2023-05-24T12:20:56;17.40;96.50
11838;DHT22;5978;51.020;6.764;2023-05-24T12:23:24;17.20;98.00
11838;DHT22;5978;51.020;6.764;2023-05-24T12:25:59;17.00;99.10
11838;DHT22;5978;51.020;6.764;2023-05-24T12:28:26;16.70;99.30
11838;DHT22;5978;51.020;6.764;2023-05-24T12:30:52;16.60;99.90
11838;DHT22;5978;51.020;6.764;2023-05-24T12:33:18;16.70;99.90
11838;DHT22;5978;51.020;6.764;2023-05-24T12:35:45;16.70;99.90
11838;DHT22;5978;51.020;6.764;2023-05-24T12:38:11;16.70;99.90
11838;DHT22;5978;51.020;6.764;2023-05-24T12:40:41;16.70;99.90
11838;DHT22;5978;51.020;6.764;2023-05-24T12:43:08;16.80;99.90
11838;DHT22;5978;51.020;6.764;2023-05-24T12:45:35;17.00;99.90
11838;DHT22;5978;51.020;6.764;2023-05-24T12:48:01;17.20;99.90
11838;DHT22;5978;51.020;6.764;2023-05-24T12:50:29;17.40;99.90
11838;DHT22;5978;51.020;6.764;2023-05-24T12:52:56;17.90;99.90
11838;DHT22;5978;51.020;6.764;2023-05-24T12:55:22;19.80;92.70
11838;DHT22;5978;51.020;6.764;2023-05-24T12:57:48;21.30;84.20
11838;DHT22;5978;51.020;6.764;2023-05-24T13:00:22;23.00;72.70
11838;DHT22;5978;51.020;6.764;2023-05-24T13:02:48;24.80;66.90
11838;DHT22;5978;51.020;6.764;2023-05-24T13:05:17;25.00;63.90
11838;DHT22;5978;51.020;6.764;2023-05-24T13:07:44;24.20;60.50
11838;DHT22;5978;51.020;6.764;2023-05-24T13:10:10;23.70;61.20
11838;DHT22;5978;51.020;6.764;2023-05-24T13:12:36;23.20;61.80
11838;DHT22;5978;51.020;6.764;2023-05-24T13:15:03;23.40;63.50
11838;DHT22;5978;51.020;6.764;2023-05-24T13:17:29;23.50;63.20
11838;DHT22;5978;51.020;6.764;2023-05-24T13:19:57;22.40;63.00
11838;DHT22;5978;51.020;6.764;2023-05-24T13:22:22;21.80;63.80
11838;DHT22;5978;51.020;6.764;2023-05-24T13:24:48;21.40;67.00
11838;DHT22;5978;51.020;6.764;2023-05-24T13:27:14;21.40;65.10
11838;DHT22;5978;51.020;6.764;2023-05-24T13:29:40;21.30;64.80
11838;DHT22;5978;51.020;6.764;2023-05-24T13:32:06;21.20;65.90
11838;DHT22;5978;51.020;6.764;2023-05-24T13:34:31;20.20;66.30
11838;DHT22;5978;51.020;6.764;2023-05-24T13:36:57;19.80;68.50
11838;DHT22;5978;51.020;6.764;2023-05-24T13:39:24;19.00;71.40
11838;DHT22;5978;51.020;6.764;2023-05-24T13:41:51;18.90;73.90
11838;DHT22;5978;51.020;6.764;2023-05-24T13:44:16;19.10;78.70
11838;DHT22;5978;51.020;6.764;2023-05-24T13:46:42;19.20;80.20
11838;DHT22;5978;51.020;6.764;2023-05-24T13:49:09;19.40;79.30
11838;DHT22;5978;51.020;6.764;2023-05-24T13:51:36;19.60;79.80
11838;DHT22;5978;51.020;6.764;2023-05-24T13:54:03;19.80;78.20
11838;DHT22;5978;51.020;6.764;2023-05-24T13:56:31;20.00;79.20
11838;DHT22;5978;51.020;6.764;2023-05-24T13:58:59;20.30;76.10
11838;DHT22;5978;51.020;6.764;2023-05-24T14:01:25;19.50;77.20
11838;DHT22;5978;51.020;6.764;2023-05-24T14:03:51;19.10;75.80
11838;DHT22;5978;51.020;6.764;2023-05-24T14:06:17;19.00;77.50
11838;DHT22;5978;51.020;6.764;2023-05-24T14:08:44;19.20;78.40
11838;DHT22;5978;51.020;6.764;2023-05-24T14:11:11;19.70;79.50
11838;DHT22;5978;51.020;6.764;2023-05-24T14:13:39;19.70;76.00
11838;DHT22;5978;51.020;6.764;2023-05-24T14:16:06;19.90;77.20
11838;DHT22;5978;51.020;6.764;2023-05-24T14:18:32;20.00;77.30
11838;DHT22;5978;51.020;6.764;2023-05-24T14:20:57;19.70;75.80
11838;DHT22;5978;51.020;6.764;2023-05-24T14:23:23;19.40;76.10
11838;DHT22;5978;51.020;6.764;2023-05-24T14:25:49;18.70;76.90
11838;DHT22;5978;51.020;6.764;2023-05-24T14:28:17;18.70;80.50
11838;DHT22;5978;51.020;6.764;2023-05-24T14:30:42;18.30;85.00
11838;DHT22;5978;51.020;6.764;2023-05-24T14:33:08;18.30;88.40
11838;DHT22;5978;51.020;6.764;2023-05-24T14:35:36;18.30;91.30
11838;DHT22;5978;51.020;6.764;2023-05-24T14:38:07;18.30;88.60
11838;DHT22;5978;51.020;6.764;2023-05-24T14:40:34;18.40;89.60
11838;DHT22;5978;51.020;6.764;2023-05-24T14:43:03;18.30;86.80
11838;DHT22;5978;51.020;6.764;2023-05-24T14:45:29;18.40;86.70
11838;DHT22;5978;51.020;6.764;2023-05-24T14:47:54;18.80;88.90
11838;DHT22;5978;51.020;6.764;2023-05-24T14:50:21;19.20;89.20
11838;DHT22;5978;51.020;6.764;2023-05-24T14:52:47;19.60;84.30
11838;DHT22;5978;51.020;6.764;2023-05-24T14:55:12;21.60;81.10
11838;DHT22;5978;51.020;6.764;2023-05-24T14:57:39;23.30;72.80
11838;DHT22;5978;51.020;6.764;2023-05-24T15:00:06;25.00;68.10
11838;DHT22;5978;51.020;6.764;2023-05-24T15:02:32;25.80;63.50
11838;DHT22;5978;51.020;6.764;2023-05-24T15:04:58;24.40;59.40
11838;DHT22;5978;51.020;6.764;2023-05-24T15:07:24;23.40;59.80
11838;DHT22;5978;51.020;6.764;2023-05-24T15:09:50;23.30;62.00
11838;DHT22;5978;51.020;6.764;2023-05-24T15:12:16;23.50;63.00
11838;DHT22;5978;51.020;6.764;2023-05-24T15:14:42;23.50;60.90
11838;DHT22;5978;51.020;6.764;2023-05-24T15:17:09;24.80;61.90
11838;DHT22;5978;51.020;6.764;2023-05-24T15:19:35;26.50;59.80
11838;DHT22;5978;51.020;6.764;2023-05-24T15:22:00;27.70;57.60
11838;DHT22;5978;51.020;6.764;2023-05-24T15:24:26;26.90;54.90
11838;DHT22;5978;51.020;6.764;2023-05-24T15:26:52;25.60;56.10
11838;DHT22;5978;51.020;6.764;2023-05-24T15:29:18;25.00;57.20
11838;DHT22;5978;51.020;6.764;2023-05-24T15:31:44;24.30;57.90
11838;DHT22;5978;51.020;6.764;2023-05-24T15:34:10;23.80;58.10
11838;DHT22;5978;51.020;6.764;2023-05-24T15:36:35;22.80;58.90
11838;DHT22;5978;51.020;6.764;2023-05-24T15:39:02;22.40;61.10
11838;DHT22;5978;51.020;6.764;2023-05-24T15:41:28;22.20;61.80
11838;DHT22;5978;51.020;6.764;2023-05-24T15:43:53;21.40;61.80
11838;DHT22;5978;51.020;6.764;2023-05-24T15:46:22;20.40;64.20
11838;DHT22;5978;51.020;6.764;2023-05-24T15:48:47;19.90;66.90
11838;DHT22;5978;51.020;6.764;2023-05-24T15:51:13;19.50;70.20
11838;DHT22;5978;51.020;6.764;2023-05-24T15:53:38;19.30;73.60
11838;DHT22;5978;51.020;6.764;2023-05-24T15:56:05;19.30;74.90
11838;DHT22;5978;51.020;6.764;2023-05-24T15:58:31;19.30;77.20
11838;DHT22;5978;51.020;6.764;2023-05-24T16:00:56;19.40;79.00